sensor_id;sensor_type;location;lat;lon;timestamp;pressure;altitude;pressure_sealevel;temperature;humidity
51439;BME280;38816;51.142;-0.974;2024-02-15T00:00:20;99743.59;;;11.20;100.00
51439;BME280;38816;51.142;-0.974;2024-02-15T00:02:47;99735.91;;;11.22;100.00
51439;BME280;38816;51.142;-0.974;2024-02-15T00:05:15;99743.63;;;11.23;100.00
51439;BME280;38816;51.142;-0.974;2024-02-15T00:07:43;99741.91;;;11.22;100.00
51439;BME280;38816;51.142;-0.974;2024-02-15T00:10:09;99742.75;;;11.21;100.00
51439;BME280;38816;51.142;-0.974;2024-02-15T00:12:35;99747.91;;;11.23;100.00
51439;BME280;38816;51.142;-0.974;2024-02-15T00:15:01;99737.63;;;11.23;100.00
51439;BME280;38816;51.142;-0.974;2024-02-15T00:17:27;99730.75;;;11.23;100.00
51439;BME280;38816;51.142;-0.974;2024-02-15T00:19:55;99737.63;;;11.24;100.00
51439;BME280;38816;51.142;-0.974;2024-02-15T00:22:20;99746.19;;;11.25;100.00
51439;BME280;38816;51.142;-0.974;2024-02-15T00:24:47;99735.94;;;11.26;100.00
51439;BME280;38816;51.142;-0.974;2024-02-15T00:27:14;99745.38;;;11.27;100.00
51439;BME280;38816;51.142;-0.974;2024-02-15T00:29:41;99743.66;;;11.28;100.00
51439;BME280;38816;51.142;-0.974;2024-02-15T00:32:06;99737.66;;;11.26;100.00
51439;BME280;38816;51.142;-0.974;2024-02-15T00:34:32;99741.09;;;11.28;100.00
51439;BME280;38816;51.142;-0.974;2024-02-15T00:36:58;99741.94;;;11.30;100.00
51439;BME280;38816;51.142;-0.974;2024-02-15T00:39:27;99734.22;;;11.28;100.00
51439;BME280;38816;51.142;-0.974;2024-02-15T00:41:52;99735.97;;;11.31;100.00
51439;BME280;38816;51.142;-0.974;2024-02-15T00:44:18;99743.69;;;11.34;100.00
51439;BME280;38816;51.142;-0.974;2024-02-15T00:46:43;99750.53;;;11.33;100.00
51439;BME280;38816;51.142;-0.974;2024-02-15T00:49:08;99736.81;;;11.34;100.00
51439;BME280;38816;51.142;-0.974;2024-02-15T00:51:37;99735.97;;;11.37;100.00
51439;BME280;38816;51.142;-0.974;2024-02-15T00:54:03;99728.25;;;11.35;100.00
51439;BME280;38816;51.142;-0.974;2024-02-15T00:56:28;99721.38;;;11.34;100.00
51439;BME280;38816;51.142;-0.974;2024-02-15T00:59:01;99730.84;;;11.35;100.00
51439;BME280;38816;51.142;-0.974;2024-02-15T01:01:26;99727.41;;;11.35;100.00
51439;BME280;38816;51.142;-0.974;2024-02-15T01:03:51;99719.66;;;11.33;100.00
51439;BME280;38816;51.142;-0.974;2024-02-15T01:06:17;99717.94;;;11.32;100.00
51439;BME280;38816;51.142;-0.974;2024-02-15T01:08:43;99717.09;;;11.33;100.00
51439;BME280;38816;51.142;-0.974;2024-02-15T01:11:09;99712.81;;;11.32;100.00
51439;BME280;38816;51.142;-0.974;2024-02-15T01:13:35;99705.06;;;11.26;100.00
51439;BME280;38816;51.142;-0.974;2024-02-15T01:16:00;99724.81;;;11.33;100.00
51439;BME280;38816;51.142;-0.974;2024-02-15T01:18:29;99713.66;;;11.33;100.00
51439;BME280;38816;51.142;-0.974;2024-02-15T01:20:55;99705.06;;;11.34;100.00
51439;BME280;38816;51.142;-0.974;2024-02-15T01:23:21;99708.50;;;11.34;100.00
51439;BME280;38816;51.142;-0.974;2024-02-15T01:25:48;99712.81;;;11.35;100.00
51439;BME280;38816;51.142;-0.974;2024-02-15T01:28:14;99709.41;;;11.35;100.00
51439;BME280;38816;51.142;-0.974;2024-02-15T01:30:39;99705.06;;;11.34;100.00
51439;BME280;38816;51.142;-0.974;2024-02-15T01:33:05;99700.78;;;11.34;100.00
51439;BME280;38816;51.142;-0.974;2024-02-15T01:35:30;99698.22;;;11.34;100.00
51439;BME280;38816;51.142;-0.974;2024-02-15T01:37:56;99705.09;;;11.35;100.00
51439;BME280;38816;51.142;-0.974;2024-02-15T01:40:21;99702.50;;;11.34;100.00
51439;BME280;38816;51.142;-0.974;2024-02-15T01:42:47;99696.53;;;11.36;100.00
51439;BME280;38816;51.142;-0.974;2024-02-15T01:45:15;99700.78;;;11.34;100.00
51439;BME280;38816;51.142;-0.974;2024-02-15T01:47:42;99696.53;;;11.35;100.00
51439;BME280;38816;51.142;-0.974;2024-02-15T01:50:11;99699.94;;;11.37;100.00
51439;BME280;38816;51.142;-0.974;2024-02-15T01:52:38;99695.63;;;11.34;100.00
51439;BME280;38816;51.142;-0.974;2024-02-15T01:55:07;99698.25;;;11.37;100.00
51439;BME280;38816;51.142;-0.974;2024-02-15T01:57:37;99693.94;;;11.36;100.00
51439;BME280;38816;51.142;-0.974;2024-02-15T02:00:07;99692.25;;;11.40;100.00
51439;BME280;38816;51.142;-0.974;2024-02-15T02:02:34;99681.97;;;11.40;100.00
51439;BME280;38816;51.142;-0.974;2024-02-15T02:05:01;99684.53;;;11.41;100.00
51439;BME280;38816;51.142;-0.974;2024-02-15T02:07:27;99681.97;;;11.41;100.00
51439;BME280;38816;51.142;-0.974;2024-02-15T02:09:53;99683.66;;;11.38;100.00
51439;BME280;38816;51.142;-0.974;2024-02-15T02:12:19;99682.81;;;11.40;100.00
51439;BME280;38816;51.142;-0.974;2024-02-15T02:14:44;99679.38;;;11.40;100.00
51439;BME280;38816;51.142;-0.974;2024-02-15T02:17:13;99675.09;;;11.40;100.00
51439;BME280;38816;51.142;-0.974;2024-02-15T02:19:39;99672.50;;;11.39;100.00
51439;BME280;38816;51.142;-0.974;2024-02-15T02:22:05;99678.53;;;11.39;100.00
51439;BME280;38816;51.142;-0.974;2024-02-15T02:24:33;99672.50;;;11.39;100.00
51439;BME280;38816;51.142;-0.974;2024-02-15T02:27:05;99675.97;;;11.39;100.00
51439;BME280;38816;51.142;-0.974;2024-02-15T02:29:32;99661.34;;;11.32;100.00
51439;BME280;38816;51.142;-0.974;2024-02-15T02:31:58;99669.06;;;11.37;100.00
51439;BME280;38816;51.142;-0.974;2024-02-15T02:34:23;99660.50;;;11.38;100.00
51439;BME280;38816;51.142;-0.974;2024-02-15T02:36:50;99667.34;;;11.39;100.00
51439;BME280;38816;51.142;-0.974;2024-02-15T02:39:16;99658.78;;;11.38;100.00
51439;BME280;38816;51.142;-0.974;2024-02-15T02:41:42;99653.66;;;11.40;100.00
51439;BME280;38816;51.142;-0.974;2024-02-15T02:44:08;99651.06;;;11.38;100.00
51439;BME280;38816;51.142;-0.974;2024-02-15T02:46:34;99645.91;;;11.38;100.00
51439;BME280;38816;51.142;-0.974;2024-02-15T02:49:00;99641.66;;;11.40;100.00
51439;BME280;38816;51.142;-0.974;2024-02-15T02:51:26;99649.38;;;11.40;100.00
51439;BME280;38816;51.142;-0.974;2024-02-15T02:53:51;99638.19;;;11.38;100.00
51439;BME280;38816;51.142;-0.974;2024-02-15T02:56:17;99642.50;;;11.39;100.00
51439;BME280;38816;51.142;-0.974;2024-02-15T02:58:43;99647.66;;;11.41;100.00
51439;BME280;38816;51.142;-0.974;2024-02-15T03:01:10;99646.78;;;11.40;100.00
51439;BME280;38816;51.142;-0.974;2024-02-15T03:03:36;99638.22;;;11.41;100.00
51439;BME280;38816;51.142;-0.974;2024-02-15T03:06:03;99645.06;;;11.43;100.00
51439;BME280;38816;51.142;-0.974;2024-02-15T03:08:29;99640.78;;;11.43;100.00
51439;BME280;38816;51.142;-0.974;2024-02-15T03:10:55;99641.63;;;11.44;100.00
51439;BME280;38816;51.142;-0.974;2024-02-15T03:13:21;99651.09;;;11.46;100.00
51439;BME280;38816;51.142;-0.974;2024-02-15T03:15:46;99641.66;;;11.47;100.00
51439;BME280;38816;51.142;-0.974;2024-02-15T03:18:17;99642.53;;;11.49;100.00
51439;BME280;38816;51.142;-0.974;2024-02-15T03:20:43;99633.09;;;11.49;100.00
51439;BME280;38816;51.142;-0.974;2024-02-15T03:23:09;99615.91;;;11.47;100.00
51439;BME280;38816;51.142;-0.974;2024-02-15T03:25:35;99607.34;;;11.49;100.00
51439;BME280;38816;51.142;-0.974;2024-02-15T03:28:00;99604.78;;;11.51;100.00
51439;BME280;38816;51.142;-0.974;2024-02-15T03:30:31;99610.78;;;11.56;100.00
51439;BME280;38816;51.142;-0.974;2024-02-15T03:32:57;99615.09;;;11.60;100.00
51439;BME280;38816;51.142;-0.974;2024-02-15T03:35:25;99618.53;;;11.60;100.00
51439;BME280;38816;51.142;-0.974;2024-02-15T03:37:52;99625.41;;;11.63;100.00
51439;BME280;38816;51.142;-0.974;2024-02-15T03:40:18;99620.25;;;11.66;100.00
51439;BME280;38816;51.142;-0.974;2024-02-15T03:42:45;99620.25;;;11.71;100.00
51439;BME280;38816;51.142;-0.974;2024-02-15T03:45:12;99618.56;;;11.73;100.00
51439;BME280;38816;51.142;-0.974;2024-02-15T03:47:37;99608.25;;;11.71;100.00
51439;BME280;38816;51.142;-0.974;2024-02-15T03:50:04;99619.44;;;11.76;100.00
51439;BME280;38816;51.142;-0.974;2024-02-15T03:52:30;99617.69;;;11.74;100.00
51439;BME280;38816;51.142;-0.974;2024-02-15T03:54:57;99611.69;;;11.76;100.00
51439;BME280;38816;51.142;-0.974;2024-02-15T03:57:23;99607.41;;;11.75;100.00
51439;BME280;38816;51.142;-0.974;2024-02-15T03:59:48;99597.94;;;11.68;100.00
51439;BME280;38816;51.142;-0.974;2024-02-15T04:02:20;99600.53;;;11.74;100.00
51439;BME280;38816;51.142;-0.974;2024-02-15T04:04:45;99602.25;;;11.74;100.00
51439;BME280;38816;51.142;-0.974;2024-02-15T04:07:15;99607.41;;;11.77;100.00
51439;BME280;38816;51.142;-0.974;2024-02-15T04:09:42;99597.97;;;11.77;100.00
51439;BME280;38816;51.142;-0.974;2024-02-15T04:12:07;99597.13;;;11.83;100.00
51439;BME280;38816;51.142;-0.974;2024-02-15T04:14:33;99592.81;;;11.82;100.00
51439;BME280;38816;51.142;-0.974;2024-02-15T04:17:00;99582.53;;;11.80;100.00
51439;BME280;38816;51.142;-0.974;2024-02-15T04:19:27;99587.69;;;11.83;100.00
51439;BME280;38816;51.142;-0.974;2024-02-15T04:21:53;99585.09;;;11.80;100.00
51439;BME280;38816;51.142;-0.974;2024-02-15T04:24:20;99590.22;;;11.79;100.00
51439;BME280;38816;51.142;-0.974;2024-02-15T04:26:47;99597.13;;;11.80;100.00
51439;BME280;38816;51.142;-0.974;2024-02-15T04:29:14;99591.13;;;11.82;100.00
51439;BME280;38816;51.142;-0.974;2024-02-15T04:31:40;99592.00;;;11.84;100.00
51439;BME280;38816;51.142;-0.974;2024-02-15T04:34:08;99588.56;;;11.82;100.00
51439;BME280;38816;51.142;-0.974;2024-02-15T04:36:35;99587.66;;;11.80;100.00
51439;BME280;38816;51.142;-0.974;2024-02-15T04:39:01;99595.41;;;11.80;100.00
51439;BME280;38816;51.142;-0.974;2024-02-15T04:41:30;99599.66;;;11.78;100.00
51439;BME280;38816;51.142;-0.974;2024-02-15T04:43:55;99603.94;;;11.75;100.00
51439;BME280;38816;51.142;-0.974;2024-02-15T04:46:21;99601.41;;;11.76;100.00
51439;BME280;38816;51.142;-0.974;2024-02-15T04:48:48;99594.53;;;11.75;100.00
51439;BME280;38816;51.142;-0.974;2024-02-15T04:51:17;99592.78;;;11.70;100.00
51439;BME280;38816;51.142;-0.974;2024-02-15T04:53:43;99589.34;;;11.60;100.00
51439;BME280;38816;51.142;-0.974;2024-02-15T04:56:11;99597.94;;;11.54;100.00
51439;BME280;38816;51.142;-0.974;2024-02-15T04:58:42;99599.59;;;11.48;100.00
51439;BME280;38816;51.142;-0.974;2024-02-15T05:01:14;99600.44;;;11.39;100.00
51439;BME280;38816;51.142;-0.974;2024-02-15T05:03:39;99587.56;;;11.31;100.00
51439;BME280;38816;51.142;-0.974;2024-02-15T05:06:05;99596.13;;;11.27;100.00
51439;BME280;38816;51.142;-0.974;2024-02-15T05:08:30;99596.09;;;11.21;100.00
51439;BME280;38816;51.142;-0.974;2024-02-15T05:10:57;99590.94;;;11.16;100.00
51439;BME280;38816;51.142;-0.974;2024-02-15T05:13:26;99586.66;;;11.14;100.00
51439;BME280;38816;51.142;-0.974;2024-02-15T05:15:51;99585.78;;;11.09;100.00
51439;BME280;38816;51.142;-0.974;2024-02-15T05:18:17;99584.91;;;11.07;100.00
51439;BME280;38816;51.142;-0.974;2024-02-15T05:20:43;99592.63;;;11.04;100.00
51439;BME280;38816;51.142;-0.974;2024-02-15T05:23:09;99581.47;;;11.00;100.00
51439;BME280;38816;51.142;-0.974;2024-02-15T05:25:34;99582.31;;;10.96;100.00
51439;BME280;38816;51.142;-0.974;2024-02-15T05:28:01;99584.00;;;10.97;100.00
51439;BME280;38816;51.142;-0.974;2024-02-15T05:30:26;99577.16;;;10.98;100.00
51439;BME280;38816;51.142;-0.974;2024-02-15T05:32:52;99578.88;;;10.96;100.00
51439;BME280;38816;51.142;-0.974;2024-02-15T05:35:18;99562.59;;;10.95;100.00
51439;BME280;38816;51.142;-0.974;2024-02-15T05:37:44;99575.41;;;10.94;100.00
51439;BME280;38816;51.142;-0.974;2024-02-15T05:40:11;99575.44;;;10.90;100.00
51439;BME280;38816;51.142;-0.974;2024-02-15T05:42:44;99581.44;;;10.91;100.00
51439;BME280;38816;51.142;-0.974;2024-02-15T05:47:49;99583.97;;;10.89;100.00
51439;BME280;38816;51.142;-0.974;2024-02-15T05:50:14;99575.41;;;10.86;100.00
51439;BME280;38816;51.142;-0.974;2024-02-15T05:52:40;99570.25;;;10.81;100.00
51439;BME280;38816;51.142;-0.974;2024-02-15T05:55:07;99578.81;;;10.83;100.00
51439;BME280;38816;51.142;-0.974;2024-02-15T05:57:33;99580.53;;;10.81;100.00
51439;BME280;38816;51.142;-0.974;2024-02-15T05:59:58;99572.78;;;10.80;100.00
51439;BME280;38816;51.142;-0.974;2024-02-15T06:02:27;99561.66;;;10.79;100.00
51439;BME280;38816;51.142;-0.974;2024-02-15T06:04:52;99570.19;;;10.75;100.00
51439;BME280;38816;51.142;-0.974;2024-02-15T06:07:19;99565.91;;;10.76;100.00
51439;BME280;38816;51.142;-0.974;2024-02-15T06:09:46;99571.06;;;10.80;100.00
51439;BME280;38816;51.142;-0.974;2024-02-15T06:12:11;99565.97;;;10.83;100.00
51439;BME280;38816;51.142;-0.974;2024-02-15T06:14:37;99559.97;;;10.81;100.00
51439;BME280;38816;51.142;-0.974;2024-02-15T06:17:02;99564.22;;;10.76;100.00
51439;BME280;38816;51.142;-0.974;2024-02-15T06:19:30;99566.78;;;10.73;100.00
51439;BME280;38816;51.142;-0.974;2024-02-15T06:21:57;99564.19;;;10.75;100.00
51439;BME280;38816;51.142;-0.974;2024-02-15T06:24:23;99559.94;;;10.78;100.00
51439;BME280;38816;51.142;-0.974;2024-02-15T06:26:49;99561.69;;;10.81;100.00
51439;BME280;38816;51.142;-0.974;2024-02-15T06:29:18;99555.66;;;10.83;100.00
51439;BME280;38816;51.142;-0.974;2024-02-15T06:32:02;99559.13;;;10.85;100.00
51439;BME280;38816;51.142;-0.974;2024-02-15T06:34:47;99556.53;;;10.88;100.00
51439;BME280;38816;51.142;-0.974;2024-02-15T06:37:38;99548.84;;;10.92;100.00
51439;BME280;38816;51.142;-0.974;2024-02-15T06:40:22;99546.31;;;10.95;100.00
51439;BME280;38816;51.142;-0.974;2024-02-15T06:42:48;99542.88;;;10.96;100.00
51439;BME280;38816;51.142;-0.974;2024-02-15T06:45:17;99542.03;;;10.95;100.00
51439;BME280;38816;51.142;-0.974;2024-02-15T06:47:46;99539.41;;;10.94;100.00
51439;BME280;38816;51.142;-0.974;2024-02-15T06:50:12;99538.53;;;10.88;100.00
51439;BME280;38816;51.142;-0.974;2024-02-15T06:52:41;99547.94;;;10.80;100.00
51439;BME280;38816;51.142;-0.974;2024-02-15T06:55:07;99544.47;;;10.69;100.00
51439;BME280;38816;51.142;-0.974;2024-02-15T06:57:34;99547.84;;;10.60;100.00
51439;BME280;38816;51.142;-0.974;2024-02-15T07:00:03;99543.53;;;10.50;100.00
51439;BME280;38816;51.142;-0.974;2024-02-15T07:02:30;99546.91;;;10.43;100.00
51439;BME280;38816;51.142;-0.974;2024-02-15T07:04:55;99558.00;;;10.37;100.00
51439;BME280;38816;51.142;-0.974;2024-02-15T07:07:20;99553.66;;;10.30;100.00
51439;BME280;38816;51.142;-0.974;2024-02-15T07:09:47;99560.50;;;10.25;100.00
51439;BME280;38816;51.142;-0.974;2024-02-15T07:12:12;99560.44;;;10.21;100.00
51439;BME280;38816;51.142;-0.974;2024-02-15T07:14:38;99552.69;;;10.16;100.00
51439;BME280;38816;51.142;-0.974;2024-02-15T07:17:03;99561.22;;;10.12;100.00
51439;BME280;38816;51.142;-0.974;2024-02-15T07:19:29;99556.94;;;10.12;100.00
51439;BME280;38816;51.142;-0.974;2024-02-15T07:21:58;99556.09;;;10.12;100.00
51439;BME280;38816;51.142;-0.974;2024-02-15T07:24:24;99555.19;;;10.08;100.00
51439;BME280;38816;51.142;-0.974;2024-02-15T07:26:52;99554.34;;;10.08;100.00
51439;BME280;38816;51.142;-0.974;2024-02-15T07:29:21;99554.34;;;10.08;100.00
51439;BME280;38816;51.142;-0.974;2024-02-15T07:31:49;99536.38;;;10.05;100.00
51439;BME280;38816;51.142;-0.974;2024-02-15T07:34:15;99545.78;;;10.06;100.00
51439;BME280;38816;51.142;-0.974;2024-02-15T07:36:42;99550.91;;;10.06;100.00
51439;BME280;38816;51.142;-0.974;2024-02-15T07:39:08;99544.91;;;10.05;100.00
51439;BME280;38816;51.142;-0.974;2024-02-15T07:41:38;99544.03;;;10.03;100.00
51439;BME280;38816;51.142;-0.974;2024-02-15T07:44:04;99532.88;;;9.98;100.00
51439;BME280;38816;51.142;-0.974;2024-02-15T07:46:29;99538.91;;;10.00;100.00
51439;BME280;38816;51.142;-0.974;2024-02-15T07:48:55;99537.16;;;9.98;100.00
51439;BME280;38816;51.142;-0.974;2024-02-15T07:51:22;99532.88;;;9.97;100.00
51439;BME280;38816;51.142;-0.974;2024-02-15T07:53:48;99532.84;;;9.94;100.00
51439;BME280;38816;51.142;-0.974;2024-02-15T07:56:16;99532.84;;;9.94;100.00
51439;BME280;38816;51.142;-0.974;2024-02-15T07:58:47;99526.00;;;9.91;100.00
51439;BME280;38816;51.142;-0.974;2024-02-15T08:01:14;99524.25;;;9.90;100.00
51439;BME280;38816;51.142;-0.974;2024-02-15T08:03:40;99521.72;;;9.93;100.00
51439;BME280;38816;51.142;-0.974;2024-02-15T08:06:12;99518.28;;;9.94;100.00
51439;BME280;38816;51.142;-0.974;2024-02-15T08:08:46;99521.75;;;9.98;100.00
51439;BME280;38816;51.142;-0.974;2024-02-15T08:11:15;99515.78;;;10.00;100.00
51439;BME280;38816;51.142;-0.974;2024-02-15T08:16:19;99511.56;;;10.10;100.00
51439;BME280;38816;51.142;-0.974;2024-02-15T08:18:46;99506.47;;;10.14;100.00
51439;BME280;38816;51.142;-0.974;2024-02-15T08:21:12;99508.19;;;10.22;100.00
51439;BME280;38816;51.142;-0.974;2024-02-15T08:23:38;99505.69;;;10.26;100.00
51439;BME280;38816;51.142;-0.974;2024-02-15T08:26:03;99509.16;;;10.33;100.00
51439;BME280;38816;51.142;-0.974;2024-02-15T08:28:29;99498.91;;;10.37;100.00
51439;BME280;38816;51.142;-0.974;2024-02-15T08:30:55;99499.81;;;10.41;100.00
51439;BME280;38816;51.142;-0.974;2024-02-15T08:33:24;99502.38;;;10.46;100.00
51439;BME280;38816;51.142;-0.974;2024-02-15T08:35:50;99493.00;;;10.51;100.00
51439;BME280;38816;51.142;-0.974;2024-02-15T08:38:16;99487.00;;;10.56;100.00
51439;BME280;38816;51.142;-0.974;2024-02-15T08:40:42;99487.03;;;10.61;100.00
51439;BME280;38816;51.142;-0.974;2024-02-15T08:43:09;99480.19;;;10.66;100.00
51439;BME280;38816;51.142;-0.974;2024-02-15T08:45:34;99485.34;;;10.68;100.00
51439;BME280;38816;51.142;-0.974;2024-02-15T08:48:00;99486.19;;;10.71;100.00
51439;BME280;38816;51.142;-0.974;2024-02-15T08:50:29;99483.66;;;10.74;100.00
51439;BME280;38816;51.142;-0.974;2024-02-15T08:52:55;99466.50;;;10.75;100.00
51439;BME280;38816;51.142;-0.974;2024-02-15T08:55:22;99460.53;;;10.79;100.00
51439;BME280;38816;51.142;-0.974;2024-02-15T08:57:53;99458.81;;;10.79;100.00
51439;BME280;38816;51.142;-0.974;2024-02-15T09:00:20;99448.53;;;10.79;100.00
51439;BME280;38816;51.142;-0.974;2024-02-15T09:02:46;99451.97;;;10.81;100.00
51439;BME280;38816;51.142;-0.974;2024-02-15T09:05:13;99440.84;;;10.81;100.00
51439;BME280;38816;51.142;-0.974;2024-02-15T09:07:43;99450.25;;;10.83;100.00
51439;BME280;38816;51.142;-0.974;2024-02-15T09:10:09;99446.00;;;10.87;100.00
51439;BME280;38816;51.142;-0.974;2024-02-15T09:12:39;99448.56;;;10.92;100.00
51439;BME280;38816;51.142;-0.974;2024-02-15T09:15:08;99443.44;;;11.01;100.00
51439;BME280;38816;51.142;-0.974;2024-02-15T09:17:34;99443.44;;;11.07;100.00
51439;BME280;38816;51.142;-0.974;2024-02-15T09:20:14;99438.28;;;11.07;100.00
51439;BME280;38816;51.142;-0.974;2024-02-15T09:22:50;99434.88;;;11.02;100.00
51439;BME280;38816;51.142;-0.974;2024-02-15T09:25:18;99433.16;;;10.95;100.00
51439;BME280;38816;51.142;-0.974;2024-02-15T09:27:44;99433.97;;;10.89;100.00
51439;BME280;38816;51.142;-0.974;2024-02-15T09:30:10;99418.56;;;10.81;100.00
51439;BME280;38816;51.142;-0.974;2024-02-15T09:32:37;99423.69;;;10.81;100.00
51439;BME280;38816;51.142;-0.974;2024-02-15T09:35:02;99415.97;;;10.83;100.00
51439;BME280;38816;51.142;-0.974;2024-02-15T09:37:28;99403.16;;;10.92;100.00
51439;BME280;38816;51.142;-0.974;2024-02-15T09:39:55;99410.00;;;11.11;100.00
51439;BME280;38816;51.142;-0.974;2024-02-15T09:42:21;99392.03;;;11.45;100.00
51439;BME280;38816;51.142;-0.974;2024-02-15T09:44:46;99404.84;;;11.74;100.00
51439;BME280;38816;51.142;-0.974;2024-02-15T09:47:12;99410.84;;;11.91;100.00
51439;BME280;38816;51.142;-0.974;2024-02-15T09:49:41;99394.50;;;12.02;100.00
51439;BME280;38816;51.142;-0.974;2024-02-15T09:52:08;99398.75;;;12.10;100.00
51439;BME280;38816;51.142;-0.974;2024-02-15T09:54:42;99399.59;;;12.19;100.00
51439;BME280;38816;51.142;-0.974;2024-02-15T09:57:09;99400.44;;;12.25;100.00
51439;BME280;38816;51.142;-0.974;2024-02-15T09:59:36;99403.81;;;12.33;100.00
51439;BME280;38816;51.142;-0.974;2024-02-15T10:02:02;99398.63;;;12.42;100.00
51439;BME280;38816;51.142;-0.974;2024-02-15T10:04:28;99406.34;;;12.53;100.00
51439;BME280;38816;51.142;-0.974;2024-02-15T10:06:53;99395.13;;;12.62;100.00
51439;BME280;38816;51.142;-0.974;2024-02-15T10:09:28;99403.69;;;12.70;100.00
51439;BME280;38816;51.142;-0.974;2024-02-15T10:11:58;99401.94;;;12.72;100.00
51439;BME280;38816;51.142;-0.974;2024-02-15T10:14:25;99403.63;;;12.76;100.00
51439;BME280;38816;51.142;-0.974;2024-02-15T10:16:52;99395.84;;;12.82;100.00
51439;BME280;38816;51.142;-0.974;2024-02-15T10:19:19;99394.06;;;12.90;100.00
51439;BME280;38816;51.142;-0.974;2024-02-15T10:21:51;99392.28;;;13.00;100.00
51439;BME280;38816;51.142;-0.974;2024-02-15T10:24:18;99393.97;;;13.07;100.00
51439;BME280;38816;51.142;-0.974;2024-02-15T10:26:48;99382.72;;;13.16;100.00
51439;BME280;38816;51.142;-0.974;2024-02-15T10:29:13;99389.56;;;13.25;100.00
51439;BME280;38816;51.142;-0.974;2024-02-15T10:31:56;99385.19;;;13.34;100.00
51439;BME280;38816;51.142;-0.974;2024-02-15T10:34:22;99379.94;;;13.40;100.00
51439;BME280;38816;51.142;-0.974;2024-02-15T10:36:49;99379.03;;;13.48;100.00
51439;BME280;38816;51.142;-0.974;2024-02-15T10:39:19;99374.63;;;13.57;100.00
51439;BME280;38816;51.142;-0.974;2024-02-15T10:41:54;99378.84;;;13.66;100.00
51439;BME280;38816;51.142;-0.974;2024-02-15T10:44:23;99376.19;;;13.72;100.00
51439;BME280;38816;51.142;-0.974;2024-02-15T10:46:52;99370.13;;;13.78;100.00
51439;BME280;38816;51.142;-0.974;2024-02-15T10:49:19;99359.78;;;13.78;100.00
51439;BME280;38816;51.142;-0.974;2024-02-15T10:51:50;99363.19;;;13.83;100.00
51439;BME280;38816;51.142;-0.974;2024-02-15T10:54:23;99361.47;;;13.82;100.00
51439;BME280;38816;51.142;-0.974;2024-02-15T10:56:54;99362.28;;;13.85;100.00
51439;BME280;38816;51.142;-0.974;2024-02-15T10:59:28;99350.22;;;13.87;100.00
51439;BME280;38816;51.142;-0.974;2024-02-15T11:01:59;99357.09;;;13.88;100.00
51439;BME280;38816;51.142;-0.974;2024-02-15T11:04:27;99348.53;;;13.82;100.00
51439;BME280;38816;51.142;-0.974;2024-02-15T11:06:58;99349.47;;;13.76;100.00
51439;BME280;38816;51.142;-0.974;2024-02-15T11:09:25;99352.94;;;13.75;100.00
51439;BME280;38816;51.142;-0.974;2024-02-15T11:11:55;99347.78;;;13.74;100.00
51439;BME280;38816;51.142;-0.974;2024-02-15T11:14:27;99339.22;;;13.68;100.00
51439;BME280;38816;51.142;-0.974;2024-02-15T11:16:56;99344.50;;;13.58;100.00
51439;BME280;38816;51.142;-0.974;2024-02-15T11:22:00;99343.81;;;13.42;100.00
51439;BME280;38816;51.142;-0.974;2024-02-15T11:24:30;99346.44;;;13.37;100.00
51439;BME280;38816;51.142;-0.974;2024-02-15T11:27:02;99344.78;;;13.30;100.00
51439;BME280;38816;51.142;-0.974;2024-02-15T11:29:48;99348.28;;;13.18;100.00
51439;BME280;38816;51.142;-0.974;2024-02-15T11:40:13;99321.59;;;13.21;100.00
51439;BME280;38816;51.142;-0.974;2024-02-15T11:42:39;99324.97;;;13.34;100.00
51439;BME280;38816;51.142;-0.974;2024-02-15T11:45:07;99310.22;;;13.43;100.00
51439;BME280;38816;51.142;-0.974;2024-02-15T11:47:37;99318.69;;;13.55;100.00
51439;BME280;38816;51.142;-0.974;2024-02-15T11:50:07;99310.00;;;13.63;100.00
51439;BME280;38816;51.142;-0.974;2024-02-15T11:52:33;99314.16;;;13.77;100.00
51439;BME280;38816;51.142;-0.974;2024-02-15T11:55:09;99302.00;;;13.86;100.00
51439;BME280;38816;51.142;-0.974;2024-02-15T11:57:42;99294.19;;;13.92;100.00
51439;BME280;38816;51.142;-0.974;2024-02-15T12:00:23;99297.47;;;14.04;100.00
51439;BME280;38816;51.142;-0.974;2024-02-15T12:03:08;99289.69;;;14.07;100.00
51439;BME280;38816;51.142;-0.974;2024-02-15T12:05:54;99287.91;;;14.12;100.00
51439;BME280;38816;51.142;-0.974;2024-02-15T12:08:38;99289.63;;;14.11;100.00
51439;BME280;38816;51.142;-0.974;2024-02-15T12:11:21;99273.28;;;14.11;100.00
51439;BME280;38816;51.142;-0.974;2024-02-15T12:14:17;99273.34;;;14.05;100.00
51439;BME280;38816;51.142;-0.974;2024-02-15T12:17:07;99281.16;;;14.00;100.00
51439;BME280;38816;51.142;-0.974;2024-02-15T12:19:53;99273.44;;;13.96;100.00
51439;BME280;38816;51.142;-0.974;2024-02-15T12:22:31;99272.69;;;13.89;100.00
51439;BME280;38816;51.142;-0.974;2024-02-15T12:24:59;99273.56;;;13.86;100.00
51439;BME280;38816;51.142;-0.974;2024-02-15T12:27:38;99264.16;;;13.84;100.00
51439;BME280;38816;51.142;-0.974;2024-02-15T12:30:04;99267.63;;;13.83;100.00
51439;BME280;38816;51.142;-0.974;2024-02-15T12:32:32;99270.19;;;13.81;100.00
51439;BME280;38816;51.142;-0.974;2024-02-15T12:35:14;99264.19;;;13.81;100.00
51439;BME280;38816;51.142;-0.974;2024-02-15T12:38:01;99268.41;;;13.88;100.00
51439;BME280;38816;51.142;-0.974;2024-02-15T12:40:35;99271.75;;;13.94;100.00
51439;BME280;38816;51.142;-0.974;2024-02-15T12:43:04;99266.47;;;14.05;100.00
51439;BME280;38816;51.142;-0.974;2024-02-15T12:45:31;99262.09;;;14.09;100.00
51439;BME280;38816;51.142;-0.974;2024-02-15T12:47:58;99268.97;;;14.10;100.00
51439;BME280;38816;51.142;-0.974;2024-02-15T12:50:27;99257.75;;;14.11;100.00
51439;BME280;38816;51.142;-0.974;2024-02-15T12:52:54;99249.09;;;14.13;100.00
51439;BME280;38816;51.142;-0.974;2024-02-15T12:55:33;99251.75;;;14.10;100.00
51439;BME280;38816;51.142;-0.974;2024-02-15T12:58:14;99250.00;;;14.09;100.00
51439;BME280;38816;51.142;-0.974;2024-02-15T13:00:41;99253.47;;;14.10;100.00